• Join FlightAware (Why Join?)
  • Login
  • US Flag 
02:51AM EST


 

Airport Tracker/Info


-or-


 

Live Flight TrackerFlight Track Log ✈ AWI3680 ✈ 11-Jul-2013 ✈ KALB - KPHL

Flight Track Log - Related Links

Times and Time Zones

All times are in EDT time to prevent confusion due to time zone crossing. See the AWI3680 flight status page for this flight to view local times or setup timezone preferences in your user account.

Time Position Orientation Groundspeed Altitude Reporting Facility
EDT Latitude Longitude Course Direction KTS MPH feet Rate Location/Type
08:35PM 42.7653 -73.8089 314° West 131 151 1,500  Level Boston Center
08:36PM 42.7981 -73.8550 314° West 221 254 4,000 2,280 Climbing Boston Center
08:37PM 42.7928 -73.9453 265° West 257 296 6,300 2,280 Climbing Boston Center
08:38PM 42.7603 -74.0350 244° Southwest 262 302 8,800 2,820 Climbing Boston Center
08:39PM 42.7006 -74.1211 227° Southwest 268 308 12,000 2,760 Climbing Boston Center
08:40PM 42.6536 -74.1961 230° Southwest 290 334 14,400 1,980 Climbing Boston Center
08:41PM 42.5936 -74.2958 231° Southwest 309 356 16,000 840 Climbing Boston Center
08:42PM 42.5358 -74.3844 229° Southwest 338 389 16,100  Climbing Boston Center
08:43PM 42.4650 -74.4975 230° Southwest 356 410 16,100  Level Boston Center
08:45PM 42.3478 -74.6875 230° Southwest 368 423 16,100  Level New York Center
08:46PM 42.2797 -74.7928 229° Southwest 368 423 16,100  Level New York Center
08:47PM 42.2158 -74.8981 231° Southwest 368 423 16,100  Level New York Center
08:48PM 42.1314 -74.9961 221° Southwest 368 423 16,100  Level New York Center
08:49PM 42.0453 -75.0689 212° Southwest 368 423 16,100  Level New York Center
08:50PM 41.9617 -75.1386 212° Southwest 373 429 16,100  Level New York Center
08:51PM 41.8758 -75.2083 211° Southwest 373 429 16,100 -60 Level New York Center
08:52PM 41.7964 -75.2697 210° Southwest 373 429 16,000 -360 Descending New York Center
08:53PM 41.7019 -75.3467 211° Southwest 373 429 15,400 -1,020 Descending New York Center
08:54PM 41.6139 -75.4183 211° Southwest 373 429 14,100 -1,320 Descending New York Center
08:55PM 41.5236 -75.4897 211° Southwest 381 438 12,900 -1,080 Descending New York Center
08:56PM 41.4417 -75.5558 211° Southwest 381 438 12,000 -480 Descending New York Center
08:57PM 41.3450 -75.6292 210° Southwest 375 432 12,000  Level New York Center
08:58PM 41.2783 -75.6794 210° Southwest 370 426 12,000 -660 Level New York Center
08:59PM 41.1656 -75.6878 183° South 346 398 10,800 -1,020 Descending New York Center
09:00PM 41.0719 -75.6867 179° South 346 398 10,000 -420 Descending New York Center
09:01PM 40.9883 -75.6889 181° South 325 374 10,000  Level New York Center
09:02PM 40.9072 -75.6883 180° South 309 356 10,000  Level New York Center
09:03PM 40.8322 -75.6858 179° South 309 356 10,000  Level New York Center
09:04PM 40.7406 -75.6872 181° South 309 356 10,000  Level New York Center
09:05PM 40.6678 -75.6328 150° Southeast 296 341 10,000  Level New York Center
09:06PM 40.5975 -75.5706 146° Southeast 301 346 10,000  Level New York Center
09:07PM 40.5350 -75.5114 144° Southeast 318 366 10,000 -540 Level New York Center
09:08PM 40.4608 -75.4436 145° Southeast 307 353 9,000 -540 Descending New York Center
09:09PM 40.3936 -75.4011 154° Southeast 282 325 9,000 -780 Level New York Center
09:10PM 40.3244 -75.3556 153° Southeast 272 313 7,500 -1,380 Descending New York Center
09:11PM 40.2703 -75.3031 144° Southeast 272 313 6,300 -1,140 Descending New York Center
09:12PM 40.2017 -75.2467 148° Southeast 278 320 5,300 -900 Descending New York Center
09:13PM 40.1311 -75.1853 146° Southeast 283 326 4,500 -720 Descending New York Center
09:14PM 40.0764 -75.1383 147° Southeast 277 319 4,000 -660 Descending New York Center
09:15PM 40.0108 -75.1072 160° South 244 281 3,300 -720 Descending New York Center